Time;durP1;ratioP1;P1;durP2;ratioP2;P2;SDS_P1;SDS_P2;PMS_P1;PMS_P2;Temp;Humidity;BMP_temperature;BMP_pressure;BME280_temperature;BME280_humidity;BME280_pressure;Samples;Min_cycle;Max_cycle;Signal;HPM_P1;HPM_P2
2022/09/28 00:00:54;;;;;;;51.03;48.17;;;;;;;;;;10230395;28;20668;-68
2022/09/28 00:05:51;;;;;;;52.90;49.88;;;;;;;;;;10229252;28;20045;-68
2022/09/28 00:10:53;;;;;;;50.78;48.00;;;;;;;;;;10218328;28;20049;-69
2022/09/28 00:16:03;;;;;;;50.83;47.95;;;;;;;;;;10232267;28;20416;-69
2022/09/28 00:21:03;;;;;;;53.70;50.60;;;;;;;;;;10227629;28;20049;-69
2022/09/28 00:26:03;;;;;;;49.70;46.85;;;;;;;;;;10227433;28;20048;-69
2022/09/28 00:30:59;;;;;;;53.42;50.42;;;;;;;;;;10226928;28;20041;-69
2022/09/28 00:35:57;;;;;;;48.72;45.95;;;;;;;;;;10225066;28;20045;-70
2022/09/28 00:40:54;;;;;;;45.67;42.88;;;;;;;;;;10231368;28;20045;-70
2022/09/28 00:46:02;;;;;;;45.95;43.22;;;;;;;;;;10229774;28;20046;-69
2022/09/28 00:51:00;;;;;;;43.25;40.80;;;;;;;;;;10224765;28;20042;-70
2022/09/28 00:55:59;;;;;;;41.95;39.55;;;;;;;;;;10217510;28;20046;-69
2022/09/28 01:00:56;;;;;;;40.00;37.65;;;;;;;;;;10233623;28;20053;-69
2022/09/28 01:05:54;;;;;;;38.45;36.03;;;;;;;;;;10223046;28;20049;-69
2022/09/28 01:10:51;;;;;;;39.50;37.20;;;;;;;;;;10226533;28;20534;-69
2022/09/28 01:15:56;;;;;;;42.35;39.85;;;;;;;;;;10231501;28;20052;-69
2022/09/28 01:21:01;;;;;;;42.75;40.03;;;;;;;;;;10227439;28;20049;-68
2022/09/28 01:26:10;;;;;;;43.33;40.83;;;;;;;;;;10229778;28;20052;-69
2022/09/28 01:31:12;;;;;;;43.65;41.03;;;;;;;;;;10226235;28;20419;-69
2022/09/28 01:36:14;;;;;;;44.42;41.42;;;;;;;;;;10229390;28;20042;-69
2022/09/28 01:41:12;;;;;;;49.95;47.25;;;;;;;;;;10226188;28;20045;-68
2022/09/28 01:46:13;;;;;;;50.75;47.95;;;;;;;;;;10227687;28;20053;-68
2022/09/28 01:51:14;;;;;;;52.17;49.28;;;;;;;;;;10237926;28;20111;-68
2022/09/28 01:56:17;;;;;;;56.63;53.42;;;;;;;;;;10239728;28;20056;-68
2022/09/28 02:01:17;;;;;;;55.00;52.13;;;;;;;;;;10225649;28;20046;-68
2022/09/28 02:06:28;;;;;;;61.15;57.75;;;;;;;;;;10240293;28;20041;-68
2022/09/28 02:11:24;;;;;;;63.67;60.15;;;;;;;;;;10231578;28;20045;-69
2022/09/28 02:16:23;;;;;;;65.60;62.20;;;;;;;;;;10228777;28;20046;-68
2022/09/28 02:21:38;;;;;;;65.97;62.33;;;;;;;;;;10240505;28;20041;-68
2022/09/28 02:26:37;;;;;;;63.03;59.40;;;;;;;;;;10229514;28;20042;-69
2022/09/28 02:31:34;;;;;;;64.90;61.03;;;;;;;;;;10227234;28;20041;-69
2022/09/28 02:36:31;;;;;;;67.70;64.00;;;;;;;;;;10238808;28;20058;-69
2022/09/28 02:41:40;;;;;;;68.68;65.10;;;;;;;;;;10232747;28;20048;-67
2022/09/28 02:46:57;;;;;;;71.00;67.32;;;;;;;;;;10225497;28;20052;-70
2022/09/28 02:52:12;;;;;;;73.85;69.90;;;;;;;;;;10232675;28;20037;-69
2022/09/28 02:57:29;;;;;;;74.32;70.32;;;;;;;;;;10236082;28;20068;-69
2022/09/28 03:02:25;;;;;;;76.82;72.82;;;;;;;;;;10219570;28;20041;-70
2022/09/28 03:07:24;;;;;;;81.85;77.57;;;;;;;;;;10225965;28;20518;-70
2022/09/28 03:12:22;;;;;;;76.85;72.53;;;;;;;;;;10228428;28;20042;-70
2022/09/28 03:17:19;;;;;;;78.30;73.72;;;;;;;;;;10236436;28;20041;-70
2022/09/28 03:22:15;;;;;;;75.00;70.90;;;;;;;;;;10226326;28;20053;-70
2022/09/28 03:27:11;;;;;;;76.72;72.63;;;;;;;;;;10228286;28;20041;-68
2022/09/28 03:32:08;;;;;;;80.57;76.32;;;;;;;;;;10229511;28;20526;-68
2022/09/28 03:37:04;;;;;;;81.57;77.20;;;;;;;;;;10231152;28;20041;-69
2022/09/28 03:42:00;;;;;;;84.03;79.40;;;;;;;;;;10230831;28;20052;-69
2022/09/28 03:46:56;;;;;;;87.22;82.05;;;;;;;;;;10229030;28;20037;-69
2022/09/28 03:51:53;;;;;;;85.68;80.88;;;;;;;;;;10229010;28;20041;-69
2022/09/28 03:56:50;;;;;;;88.18;83.03;;;;;;;;;;10229318;28;20053;-68
2022/09/28 04:01:50;;;;;;;96.03;90.47;;;;;;;;;;10227141;28;20045;-68
2022/09/28 04:06:46;;;;;;;89.53;84.03;;;;;;;;;;10229561;28;20056;-68
2022/09/28 04:11:42;;;;;;;99.25;92.97;;;;;;;;;;10227111;28;20049;-68
2022/09/28 04:16:58;;;;;;;103.32;96.40;;;;;;;;;;10240039;28;20110;-69
2022/09/28 04:21:55;;;;;;;94.03;87.40;;;;;;;;;;10241518;28;20051;-69
2022/09/28 04:26:51;;;;;;;100.00;93.30;;;;;;;;;;10223014;28;20136;-69
2022/09/28 04:31:49;;;;;;;98.32;91.53;;;;;;;;;;10241924;28;20057;-68
2022/09/28 04:36:46;;;;;;;104.10;96.85;;;;;;;;;;10241539;28;20052;-68
2022/09/28 04:41:42;;;;;;;105.45;98.00;;;;;;;;;;10239548;28;20095;-68
2022/09/28 04:46:38;;;;;;;97.97;90.95;;;;;;;;;;10240377;28;20041;-68
2022/09/28 04:51:35;;;;;;;101.45;93.80;;;;;;;;;;10221667;28;20037;-68
2022/09/28 04:56:31;;;;;;;100.95;93.97;;;;;;;;;;10225111;28;20064;-68
2022/09/28 05:01:28;;;;;;;108.65;101.30;;;;;;;;;;10233279;28;20048;-68
2022/09/28 05:06:27;;;;;;;105.22;98.03;;;;;;;;;;10220440;28;20129;-67
2022/09/28 05:11:23;;;;;;;104.13;97.13;;;;;;;;;;10226670;28;20048;-68
2022/09/28 05:16:20;;;;;;;103.65;96.68;;;;;;;;;;10224840;28;20042;-70
2022/09/28 05:21:18;;;;;;;103.88;96.55;;;;;;;;;;10225825;28;20075;-70
2022/09/28 05:26:15;;;;;;;102.78;95.72;;;;;;;;;;10226488;28;20046;-70
2022/09/28 05:31:12;;;;;;;103.30;96.50;;;;;;;;;;10239118;28;20044;-70
2022/09/28 05:36:09;;;;;;;100.53;93.75;;;;;;;;;;10241680;28;20053;-70
2022/09/28 05:41:06;;;;;;;96.20;89.70;;;;;;;;;;10245389;28;20048;-70
2022/09/28 05:46:02;;;;;;;97.10;90.07;;;;;;;;;;10244704;28;20046;-70
2022/09/28 05:50:58;;;;;;;98.43;91.38;;;;;;;;;;10250397;28;20561;-70
2022/09/28 05:55:58;;;;;;;98.45;91.07;;;;;;;;;;10241160;28;20455;-70
2022/09/28 06:00:54;;;;;;;96.93;90.25;;;;;;;;;;10231271;28;20045;-70
2022/09/28 06:05:51;;;;;;;98.57;91.32;;;;;;;;;;10234620;28;20407;-67
2022/09/28 06:10:47;;;;;;;96.57;89.63;;;;;;;;;;10228637;28;20045;-71
2022/09/28 06:15:45;;;;;;;92.93;85.90;;;;;;;;;;10227435;28;20124;-70
2022/09/28 06:20:41;;;;;;;97.40;90.28;;;;;;;;;;10216953;28;20045;-70
2022/09/28 06:25:38;;;;;;;98.60;91.45;;;;;;;;;;10232114;28;20040;-70
2022/09/28 06:30:36;;;;;;;95.70;88.32;;;;;;;;;;10228231;28;20045;-70
2022/09/28 06:35:33;;;;;;;92.00;85.40;;;;;;;;;;10234825;28;20087;-70
2022/09/28 06:40:30;;;;;;;86.82;80.55;;;;;;;;;;10239932;28;20045;-70
2022/09/28 06:45:27;;;;;;;83.30;76.85;;;;;;;;;;10240306;28;20042;-70
2022/09/28 06:50:25;;;;;;;86.00;79.18;;;;;;;;;;10230700;28;20060;-69
2022/09/28 06:55:21;;;;;;;79.50;73.45;;;;;;;;;;10241766;28;20052;-70
2022/09/28 07:00:17;;;;;;;77.63;71.65;;;;;;;;;;10231135;28;20049;-69
2022/09/28 07:05:14;;;;;;;68.93;63.10;;;;;;;;;;10236115;28;20048;-70
2022/09/28 07:10:11;;;;;;;70.93;65.50;;;;;;;;;;10244046;28;20541;-69
2022/09/28 07:15:08;;;;;;;70.35;64.63;;;;;;;;;;10239436;28;20051;-69
2022/09/28 07:20:04;;;;;;;69.93;64.03;;;;;;;;;;10236801;28;20430;-69
2022/09/28 07:25:13;;;;;;;68.20;62.70;;;;;;;;;;10237845;28;20083;-70
2022/09/28 07:30:10;;;;;;;64.10;58.33;;;;;;;;;;10235409;28;20052;-70
2022/09/28 07:35:08;;;;;;;64.07;58.58;;;;;;;;;;10243601;28;20073;-70
2022/09/28 07:45:22;;;;;;;63.92;58.22;;;;;;;;;;10242246;28;20088;-70
2022/09/28 07:50:19;;;;;;;65.30;59.22;;;;;;;;;;10241912;28;20446;-70
2022/09/28 07:55:16;;;;;;;68.93;62.70;;;;;;;;;;10238483;28;20041;-70
2022/09/28 08:00:12;;;;;;;65.32;59.17;;;;;;;;;;10236414;28;20041;-70
2022/09/28 08:05:09;;;;;;;61.10;55.00;;;;;;;;;;10233397;28;20053;-70
2022/09/28 08:10:06;;;;;;;65.10;58.80;;;;;;;;;;10229783;28;20053;-70
2022/09/28 08:15:03;;;;;;;56.65;51.15;;;;;;;;;;10237424;28;20498;-70
2022/09/28 08:25:25;;;;;;;58.22;53.08;;;;;;;;;;10211748;28;20053;-70
2022/09/28 08:30:21;;;;;;;56.88;51.00;;;;;;;;;;10245287;28;20056;-70
2022/09/28 08:35:17;;;;;;;57.92;52.17;;;;;;;;;;10243326;28;20052;-70
2022/09/28 08:40:19;;;;;;;52.25;46.90;;;;;;;;;;10224279;28;20590;-70
2022/09/28 08:45:19;;;;;;;50.92;45.88;;;;;;;;;;10231505;28;20053;-72
2022/09/28 08:50:21;;;;;;;48.42;43.83;;;;;;;;;;10244370;28;20044;-70
2022/09/28 08:55:25;;;;;;;44.35;39.80;;;;;;;;;;10240063;28;20049;-70
2022/09/28 09:00:32;;;;;;;39.58;35.40;;;;;;;;;;10223869;28;20060;-70
2022/09/28 09:05:42;;;;;;;39.90;35.65;;;;;;;;;;10240700;28;20398;-70
2022/09/28 09:10:39;;;;;;;33.65;30.15;;;;;;;;;;10231147;28;20053;-70
2022/09/28 09:15:54;;;;;;;42.33;34.33;;;;;;;;;;10233543;28;20049;-70
2022/09/28 09:20:57;;;;;;;46.33;35.58;;;;;;;;;;10230912;28;20045;-68
2022/09/28 09:25:56;;;;;;;40.67;30.27;;;;;;;;;;10231427;28;20081;-70
2022/09/28 09:31:01;;;;;;;36.08;30.60;;;;;;;;;;10233974;28;20530;-70
2022/09/28 09:36:02;;;;;;;32.58;29.20;;;;;;;;;;10239630;28;20057;-70
2022/09/28 09:41:05;;;;;;;35.17;28.15;;;;;;;;;;10222911;28;20132;-70
2022/09/28 09:46:16;;;;;;;30.63;27.33;;;;;;;;;;10234578;28;20495;-70
2022/09/28 09:51:28;;;;;;;35.25;29.77;;;;;;;;;;10237887;28;20085;-70
2022/09/28 09:56:42;;;;;;;33.97;27.90;;;;;;;;;;10235931;28;20741;-69
2022/09/28 10:01:39;;;;;;;32.90;26.27;;;;;;;;;;10237154;28;20128;-69
2022/09/28 10:06:36;;;;;;;28.05;24.13;;;;;;;;;;10239834;28;20391;-69
2022/09/28 10:11:35;;;;;;;32.58;27.38;;;;;;;;;;10245705;28;20055;-70
2022/09/28 10:16:31;;;;;;;31.98;26.00;;;;;;;;;;10248805;28;20038;-70
2022/09/28 10:21:28;;;;;;;27.50;24.48;;;;;;;;;;10240869;28;20049;-70
2022/09/28 10:26:45;;;;;;;29.17;24.55;;;;;;;;;;10238760;28;20046;-70
2022/09/28 10:31:47;;;;;;;26.95;24.05;;;;;;;;;;10239074;28;20041;-70
2022/09/28 10:36:45;;;;;;;25.02;22.27;;;;;;;;;;10236320;28;20041;-70
2022/09/28 10:41:47;;;;;;;24.70;21.77;;;;;;;;;;10235860;28;20067;-69
2022/09/28 10:46:54;;;;;;;24.02;20.88;;;;;;;;;;10244419;28;20041;-70
2022/09/28 10:51:52;;;;;;;23.73;19.98;;;;;;;;;;10246523;28;20297;-69
2022/09/28 10:56:49;;;;;;;19.60;17.50;;;;;;;;;;10243154;28;20050;-70
2022/09/28 11:01:45;;;;;;;20.38;18.17;;;;;;;;;;10241485;28;20053;-70
2022/09/28 11:06:41;;;;;;;22.38;18.67;;;;;;;;;;10234946;28;20098;-69
2022/09/28 11:11:41;;;;;;;21.20;18.83;;;;;;;;;;10237736;28;20052;-70
2022/09/28 11:16:37;;;;;;;19.05;16.98;;;;;;;;;;10242819;28;20042;-70
2022/09/28 11:21:41;;;;;;;20.20;17.70;;;;;;;;;;10232430;28;20064;-70
2022/09/28 11:26:48;;;;;;;16.35;14.65;;;;;;;;;;10243157;28;20616;-70
2022/09/28 11:31:45;;;;;;;21.08;17.95;;;;;;;;;;10233457;28;20499;-71
2022/09/28 11:36:52;;;;;;;20.15;17.45;;;;;;;;;;10237305;28;20037;-70
2022/09/28 11:41:48;;;;;;;14.70;13.30;;;;;;;;;;10235608;28;20038;-70
2022/09/28 11:46:53;;;;;;;13.93;12.63;;;;;;;;;;10241713;28;20044;-69
2022/09/28 11:51:51;;;;;;;13.40;12.07;;;;;;;;;;10238884;28;20041;-70
2022/09/28 11:56:49;;;;;;;10.75;9.60;;;;;;;;;;10241549;28;20059;-70
2022/09/28 12:01:56;;;;;;;11.02;9.25;;;;;;;;;;10233869;28;20096;-70
2022/09/28 12:06:55;;;;;;;12.00;10.95;;;;;;;;;;10234557;28;20034;-70
2022/09/28 12:11:55;;;;;;;10.77;9.77;;;;;;;;;;10237448;28;20038;-70
2022/09/28 12:17:04;;;;;;;10.38;9.00;;;;;;;;;;10236638;28;20041;-69
2022/09/28 12:22:08;;;;;;;11.45;9.88;;;;;;;;;;10235221;28;20136;-70
2022/09/28 12:27:15;;;;;;;10.55;9.52;;;;;;;;;;10232024;28;20042;-70
2022/09/28 12:32:30;;;;;;;9.48;8.68;;;;;;;;;;10230645;28;20048;-70
2022/09/28 12:37:45;;;;;;;9.45;7.78;;;;;;;;;;10230930;28;20060;-70
2022/09/28 12:43:00;;;;;;;8.40;7.18;;;;;;;;;;10229507;28;20068;-70
2022/09/28 12:48:07;;;;;;;7.70;7.00;;;;;;;;;;10234684;28;20048;-70
2022/09/28 12:53:24;;;;;;;6.90;6.30;;;;;;;;;;10231497;28;20044;-70
2022/09/28 12:58:30;;;;;;;6.80;6.20;;;;;;;;;;10225673;28;20205;-70
2022/09/28 13:03:43;;;;;;;10.93;6.75;;;;;;;;;;10229116;28;20088;-69
2022/09/28 13:08:40;;;;;;;6.53;5.45;;;;;;;;;;10230659;28;20079;-70
2022/09/28 13:13:55;;;;;;;6.85;6.18;;;;;;;;;;10230218;28;20057;-69
2022/09/28 13:18:51;;;;;;;6.47;5.80;;;;;;;;;;10224710;28;20052;-69
2022/09/28 13:23:49;;;;;;;7.00;6.20;;;;;;;;;;10238765;28;20056;-69
2022/09/28 13:28:45;;;;;;;6.38;5.75;;;;;;;;;;10229817;28;20037;-69
2022/09/28 13:33:43;;;;;;;10.15;5.78;;;;;;;;;;10235559;28;20124;-69
2022/09/28 13:38:46;;;;;;;6.32;5.55;;;;;;;;;;10220925;28;20049;-69
2022/09/28 13:44:00;;;;;;;5.90;5.30;;;;;;;;;;10237991;28;20048;-69
2022/09/28 13:48:57;;;;;;;5.93;5.30;;;;;;;;;;10233034;28;20503;-69
2022/09/28 13:54:25;;;;;;;8.02;5.70;;;;;;;;;;10234270;28;20454;-69
2022/09/28 13:59:26;;;;;;;6.45;5.68;;;;;;;;;;10212119;28;20507;-70
2022/09/28 14:04:41;;;;;;;5.80;5.30;;;;;;;;;;10232434;28;20057;-69
2022/09/28 14:09:43;;;;;;;5.18;4.78;;;;;;;;;;10234743;28;20132;-69
2022/09/28 14:14:47;;;;;;;5.45;4.80;;;;;;;;;;10237123;28;20369;-69
2022/09/28 14:19:45;;;;;;;5.68;5.18;;;;;;;;;;10233208;28;20043;-69
2022/09/28 14:24:54;;;;;;;6.13;5.43;;;;;;;;;;10237450;28;20041;-69
2022/09/28 14:30:04;;;;;;;5.40;4.95;;;;;;;;;;10232326;28;20049;-69
2022/09/28 14:35:03;;;;;;;7.60;5.35;;;;;;;;;;10240756;28;20048;-69
2022/09/28 14:45:32;;;;;;;6.05;5.50;;;;;;;;;;10235216;28;20135;-69
2022/09/28 14:50:29;;;;;;;6.35;5.75;;;;;;;;;;10231980;28;20052;-69
2022/09/28 14:55:27;;;;;;;5.90;5.40;;;;;;;;;;10236776;28;20478;-69
2022/09/28 15:00:27;;;;;;;6.25;5.10;;;;;;;;;;10228784;28;20163;-69
2022/09/28 15:05:27;;;;;;;6.05;5.53;;;;;;;;;;10221250;28;20049;-69
2022/09/28 15:10:27;;;;;;;5.78;5.28;;;;;;;;;;10234349;28;20128;-70
2022/09/28 15:15:29;;;;;;;5.90;5.40;;;;;;;;;;10231890;28;20570;-69
2022/09/28 15:20:29;;;;;;;6.32;5.20;;;;;;;;;;10233022;28;20049;-69
2022/09/28 15:25:26;;;;;;;5.97;5.35;;;;;;;;;;10228314;28;20059;-69
2022/09/28 15:30:23;;;;;;;6.82;6.22;;;;;;;;;;10234416;28;20049;-67
2022/09/28 15:35:25;;;;;;;5.88;5.38;;;;;;;;;;10230218;28;20049;-70
2022/09/28 15:40:31;;;;;;;6.22;5.65;;;;;;;;;;10230662;28;21687;-69
2022/09/28 15:45:32;;;;;;;6.40;5.70;;;;;;;;;;10233353;28;20124;-69
2022/09/28 15:50:28;;;;;;;6.07;5.57;;;;;;;;;;10240757;28;20048;-69
2022/09/28 15:55:27;;;;;;;6.30;5.70;;;;;;;;;;10240240;28;21778;-69
2022/09/28 16:00:25;;;;;;;6.50;5.85;;;;;;;;;;10230484;28;20545;-69
2022/09/28 16:05:44;;;;;;;6.13;5.53;;;;;;;;;;10230640;28;20049;-69
2022/09/28 16:10:50;;;;;;;6.55;5.95;;;;;;;;;;10227247;28;20047;-69
2022/09/28 16:15:53;;;;;;;6.45;5.70;;;;;;;;;;10231851;28;20045;-69
2022/09/28 16:20:50;;;;;;;6.75;6.07;;;;;;;;;;10225899;28;20044;-69
2022/09/28 16:25:52;;;;;;;6.72;6.13;;;;;;;;;;10232439;28;20064;-69
2022/09/28 16:31:05;;;;;;;7.68;6.95;;;;;;;;;;10235615;28;20048;-69
2022/09/28 16:36:02;;;;;;;8.00;7.20;;;;;;;;;;10226728;28;20064;-69
2022/09/28 16:41:01;;;;;;;8.02;7.32;;;;;;;;;;10233837;28;20041;-69
2022/09/28 16:45:59;;;;;;;9.15;8.25;;;;;;;;;;10240274;28;20042;-69
2022/09/28 16:50:56;;;;;;;8.45;7.65;;;;;;;;;;10226470;28;20056;-69
2022/09/28 16:55:53;;;;;;;9.85;9.05;;;;;;;;;;10193291;28;20133;-69
2022/09/28 17:00:50;;;;;;;9.57;8.65;;;;;;;;;;10204126;28;20049;-69
2022/09/28 17:05:47;;;;;;;10.60;9.73;;;;;;;;;;10187267;28;20054;-68
2022/09/28 17:10:51;;;;;;;11.35;10.27;;;;;;;;;;10209667;28;20397;-69
2022/09/28 17:16:11;;;;;;;10.93;9.70;;;;;;;;;;10200530;28;20054;-69
2022/09/28 17:21:15;;;;;;;12.05;10.88;;;;;;;;;;10195069;28;20124;-69
2022/09/28 17:26:17;;;;;;;12.52;10.80;;;;;;;;;;10198580;28;20440;-69
2022/09/28 17:31:15;;;;;;;11.82;10.82;;;;;;;;;;10207343;28;20046;-69
2022/09/28 17:36:14;;;;;;;13.52;12.38;;;;;;;;;;10201883;28;20702;-69
2022/09/28 17:41:11;;;;;;;14.20;12.90;;;;;;;;;;10204153;28;20054;-69
2022/09/28 17:46:19;;;;;;;14.90;13.70;;;;;;;;;;10207653;28;20046;-68
2022/09/28 17:51:16;;;;;;;15.43;13.88;;;;;;;;;;10201432;28;20108;-68
2022/09/28 17:56:12;;;;;;;15.98;14.52;;;;;;;;;;10206170;28;20661;-68
2022/09/28 18:01:08;;;;;;;19.75;17.05;;;;;;;;;;10217115;28;20041;-69
2022/09/28 18:06:06;;;;;;;18.20;16.58;;;;;;;;;;10229238;28;20159;-69
2022/09/28 18:11:03;;;;;;;20.10;18.30;;;;;;;;;;10221523;28;20052;-68
2022/09/28 18:15:59;;;;;;;23.80;21.63;;;;;;;;;;10226485;28;20056;-68
2022/09/28 18:20:55;;;;;;;23.35;21.35;;;;;;;;;;10231896;28;20649;-69
2022/09/28 18:25:52;;;;;;;25.48;23.25;;;;;;;;;;10227960;28;20457;-69
2022/09/28 18:30:48;;;;;;;25.42;23.33;;;;;;;;;;10234619;28;20495;-69
2022/09/28 18:35:53;;;;;;;31.77;29.33;;;;;;;;;;10236755;28;20608;-69
2022/09/28 18:40:50;;;;;;;30.73;28.20;;;;;;;;;;10234760;28;20052;-68
2022/09/28 18:45:46;;;;;;;31.55;28.70;;;;;;;;;;10233671;28;20053;-69
2022/09/28 18:50:42;;;;;;;33.53;30.83;;;;;;;;;;10235457;28;20041;-69
2022/09/28 18:55:39;;;;;;;34.65;31.67;;;;;;;;;;10238477;28;20045;-69
2022/09/28 19:00:37;;;;;;;34.58;31.60;;;;;;;;;;10230792;28;20051;-69
2022/09/28 19:05:33;;;;;;;34.30;31.02;;;;;;;;;;10238833;28;20400;-69
2022/09/28 19:10:30;;;;;;;38.13;35.05;;;;;;;;;;10234308;28;20045;-69
2022/09/28 19:15:26;;;;;;;35.78;32.70;;;;;;;;;;10229680;28;20037;-69
2022/09/28 19:20:22;;;;;;;34.58;31.80;;;;;;;;;;10234208;28;20069;-68
2022/09/28 19:25:18;;;;;;;35.90;32.75;;;;;;;;;;10239414;28;20045;-69
2022/09/28 19:30:15;;;;;;;36.28;33.33;;;;;;;;;;10238911;28;20050;-68
2022/09/28 19:35:13;;;;;;;36.55;33.45;;;;;;;;;;10233731;28;20487;-68
2022/09/28 19:40:09;;;;;;;39.45;36.15;;;;;;;;;;10233225;28;20053;-69
2022/09/28 19:45:07;;;;;;;39.17;36.15;;;;;;;;;;10237408;28;20053;-68
2022/09/28 19:50:04;;;;;;;40.92;37.65;;;;;;;;;;10237395;28;20057;-68
2022/09/28 19:55:00;;;;;;;38.65;35.67;;;;;;;;;;10235956;28;20052;-68
2022/09/28 19:59:57;;;;;;;45.10;41.45;;;;;;;;;;10231671;28;20045;-69
2022/09/28 20:04:58;;;;;;;43.53;40.00;;;;;;;;;;10237907;28;20470;-68
2022/09/28 20:09:54;;;;;;;47.63;43.88;;;;;;;;;;10228029;28;20088;-69
2022/09/28 20:14:50;;;;;;;51.28;47.33;;;;;;;;;;10233742;28;20038;-68
2022/09/28 20:19:46;;;;;;;50.45;46.40;;;;;;;;;;10228045;28;20588;-69
2022/09/28 20:24:43;;;;;;;49.15;45.35;;;;;;;;;;10232149;28;20045;-69
2022/09/28 20:29:41;;;;;;;49.15;44.70;;;;;;;;;;10234461;28;20487;-68
2022/09/28 20:34:37;;;;;;;46.70;42.95;;;;;;;;;;10232301;28;20045;-68
2022/09/28 20:39:34;;;;;;;47.22;43.78;;;;;;;;;;10234529;28;20040;-69
2022/09/28 20:44:30;;;;;;;44.45;41.03;;;;;;;;;;10232466;28;20044;-68
2022/09/28 20:49:26;;;;;;;49.20;45.13;;;;;;;;;;10239209;28;20057;-68
2022/09/28 20:54:23;;;;;;;48.08;44.38;;;;;;;;;;10232310;28;20593;-68
2022/09/28 20:59:23;;;;;;;52.58;48.53;;;;;;;;;;10247023;28;20388;-66
2022/09/28 21:04:19;;;;;;;51.00;47.20;;;;;;;;;;10247457;28;20041;-67
2022/09/28 21:09:15;;;;;;;48.70;44.90;;;;;;;;;;10249799;28;20094;-67
2022/09/28 21:14:12;;;;;;;51.20;47.53;;;;;;;;;;10239824;28;20083;-68
2022/09/28 21:19:08;;;;;;;59.58;55.10;;;;;;;;;;10222076;28;20495;-68
2022/09/28 21:24:04;;;;;;;59.08;54.75;;;;;;;;;;10232925;28;20041;-67
2022/09/28 21:29:02;;;;;;;61.28;56.97;;;;;;;;;;10235063;28;20041;-67
2022/09/28 21:33:58;;;;;;;58.50;54.40;;;;;;;;;;10224049;28;20049;-67
2022/09/28 21:38:54;;;;;;;61.15;56.75;;;;;;;;;;10226831;28;20053;-67
2022/09/28 21:43:51;;;;;;;54.63;50.58;;;;;;;;;;10228324;28;20091;-68
2022/09/28 21:48:52;;;;;;;54.58;50.80;;;;;;;;;;10231863;28;20038;-67
2022/09/28 21:53:48;;;;;;;56.60;52.90;;;;;;;;;;10230195;28;20051;-68
2022/09/28 21:58:45;;;;;;;56.67;52.60;;;;;;;;;;10232389;28;20561;-67
2022/09/28 22:03:42;;;;;;;51.70;48.33;;;;;;;;;;10241103;28;20046;-68
2022/09/28 22:08:39;;;;;;;51.70;48.00;;;;;;;;;;10234447;28;20041;-67
2022/09/28 22:13:37;;;;;;;51.20;47.70;;;;;;;;;;10243173;28;20045;-66
2022/09/28 22:18:33;;;;;;;52.72;49.17;;;;;;;;;;10262079;28;20417;-67
2022/09/28 22:23:30;;;;;;;52.00;48.40;;;;;;;;;;10260623;28;20041;-67
2022/09/28 22:28:27;;;;;;;53.15;49.22;;;;;;;;;;10236827;28;20056;-68
2022/09/28 22:33:23;;;;;;;56.25;52.25;;;;;;;;;;10234030;28;20042;-68
2022/09/28 22:38:20;;;;;;;55.30;51.20;;;;;;;;;;10237506;28;20443;-68
2022/09/28 22:43:17;;;;;;;54.78;50.75;;;;;;;;;;10233975;28;20063;-68
2022/09/28 22:48:14;;;;;;;53.72;49.85;;;;;;;;;;10236064;28;20044;-67
2022/09/28 22:53:12;;;;;;;58.55;54.47;;;;;;;;;;10236481;28;20049;-67
2022/09/28 22:58:08;;;;;;;55.30;51.22;;;;;;;;;;10234176;28;20049;-67
2022/09/28 23:03:04;;;;;;;56.28;52.47;;;;;;;;;;10236645;28;20435;-67
2022/09/28 23:08:02;;;;;;;57.83;53.90;;;;;;;;;;10235379;28;20045;-69
2022/09/28 23:12:58;;;;;;;61.25;57.03;;;;;;;;;;10228725;28;20052;-66
2022/09/28 23:17:54;;;;;;;55.03;51.08;;;;;;;;;;10234580;28;20038;-66
2022/09/28 23:22:50;;;;;;;58.85;54.80;;;;;;;;;;10232094;28;20406;-66
2022/09/28 23:27:47;;;;;;;60.47;56.38;;;;;;;;;;10229443;28;20497;-65
2022/09/28 23:32:44;;;;;;;62.78;58.63;;;;;;;;;;10230805;28;20063;-66
2022/09/28 23:37:40;;;;;;;59.60;54.97;;;;;;;;;;10235174;28;20049;-66
2022/09/28 23:42:37;;;;;;;62.17;57.72;;;;;;;;;;10232253;28;20096;-65
2022/09/28 23:47:36;;;;;;;61.10;57.15;;;;;;;;;;10227827;28;20694;-66
2022/09/28 23:52:32;;;;;;;63.47;59.28;;;;;;;;;;10232729;28;20057;-66
2022/09/28 23:57:28;;;;;;;65.20;60.67;;;;;;;;;;10233832;28;20042;-66
